createdAt,value
2023-04-29T00:00:14.512Z,21
2023-04-29T00:02:43.022Z,19
2023-04-29T00:03:57.188Z,18
2023-04-29T00:05:11.308Z,18
2023-04-29T00:06:25.286Z,17
2023-04-29T00:08:53.523Z,19
2023-04-29T00:10:07.684Z,18
2023-04-29T00:11:21.652Z,19
2023-04-29T00:13:49.978Z,18
2023-04-29T00:15:04.200Z,18
2023-04-29T00:16:18.250Z,18
2023-04-29T00:18:46.524Z,17
2023-04-29T00:20:00.618Z,16
2023-04-29T00:21:14.738Z,18
2023-04-29T00:23:43.029Z,17
2023-04-29T00:24:57.160Z,16
2023-04-29T00:26:11.325Z,16
2023-04-29T00:28:39.550Z,18
2023-04-29T00:29:54.116Z,17
2023-04-29T00:31:07.964Z,17
2023-04-29T00:32:21.985Z,17
2023-04-29T00:34:50.202Z,16
2023-04-29T00:36:04.434Z,17
2023-04-29T00:37:18.608Z,17
2023-04-29T00:39:46.754Z,17
2023-04-29T00:41:00.887Z,17
2023-04-29T00:42:15.047Z,17
2023-04-29T00:44:43.306Z,16
2023-04-29T00:45:57.454Z,16
2023-04-29T00:47:11.569Z,17
2023-04-29T00:48:25.709Z,17
2023-04-29T00:50:54.020Z,17
2023-04-29T00:52:08.155Z,17
2023-04-29T00:53:22.259Z,16
2023-04-29T00:55:50.463Z,16
2023-04-29T00:57:04.682Z,17
2023-04-29T00:58:18.775Z,17
2023-04-29T00:59:32.963Z,17
2023-04-29T01:00:47.106Z,16
2023-04-29T01:02:01.270Z,16
2023-04-29T01:03:15.589Z,15
2023-04-29T01:05:43.666Z,15
2023-04-29T01:06:57.698Z,16
2023-04-29T01:08:11.817Z,15
2023-04-29T01:10:40.066Z,15
2023-04-29T01:11:54.236Z,15
2023-04-29T01:13:08.369Z,15
2023-04-29T01:14:22.512Z,15
2023-04-29T01:16:50.724Z,15
2023-04-29T01:18:05.012Z,14
2023-04-29T01:19:19.021Z,15
2023-04-29T01:21:47.348Z,14
2023-04-29T01:23:01.390Z,14
2023-04-29T01:24:15.567Z,14
2023-04-29T01:26:43.891Z,15
2023-04-29T01:27:57.965Z,15
2023-04-29T01:29:12.084Z,14
2023-04-29T01:30:27.067Z,14
2023-04-29T01:31:40.381Z,14
2023-04-29T01:32:54.559Z,15
2023-04-29T01:34:08.661Z,14
2023-04-29T01:35:22.767Z,15
2023-04-29T01:37:50.997Z,14
2023-04-29T01:39:05.183Z,14
2023-04-29T01:40:19.305Z,13
2023-04-29T01:42:47.564Z,14
2023-04-29T01:44:01.666Z,14
2023-04-29T01:45:15.855Z,13
2023-04-29T01:47:44.181Z,14
2023-04-29T01:48:58.226Z,14
2023-04-29T01:50:12.350Z,14
2023-04-29T01:52:40.580Z,15
2023-04-29T01:53:54.844Z,14
2023-04-29T01:55:08.902Z,15
2023-04-29T01:56:23.102Z,14
2023-04-29T01:58:51.311Z,13
2023-04-29T02:00:05.521Z,14
2023-04-29T02:01:19.711Z,14
2023-04-29T02:03:47.985Z,15
2023-04-29T02:05:02.037Z,15
2023-04-29T02:06:16.099Z,15
2023-04-29T02:08:44.394Z,16
2023-04-29T02:09:58.508Z,15
2023-04-29T02:11:12.618Z,16
2023-04-29T02:13:40.854Z,16
2023-04-29T02:14:55.081Z,17
2023-04-29T02:16:09.201Z,16
2023-04-29T02:17:23.453Z,17
2023-04-29T02:19:51.722Z,18
2023-04-29T02:21:05.776Z,18
2023-04-29T02:22:19.911Z,17
2023-04-29T02:24:48.078Z,16
2023-04-29T02:26:02.214Z,17
2023-04-29T02:27:16.475Z,16
2023-04-29T02:29:44.639Z,18
2023-04-29T02:30:58.776Z,17
2023-04-29T02:32:12.970Z,18
2023-04-29T02:34:41.129Z,18
2023-04-29T02:35:55.318Z,18
2023-04-29T02:37:09.468Z,19
2023-04-29T02:38:23.611Z,18
2023-04-29T02:40:51.888Z,20
2023-04-29T02:42:06.038Z,20
2023-04-29T02:43:20.084Z,21
2023-04-29T02:45:48.440Z,22
2023-04-29T02:47:02.515Z,22
2023-04-29T02:48:16.705Z,23
2023-04-29T02:50:44.976Z,22
2023-04-29T02:51:59.052Z,24
2023-04-29T02:53:13.261Z,24
2023-04-29T02:55:41.416Z,24
2023-04-29T02:56:55.587Z,25
2023-04-29T02:58:09.671Z,24
2023-04-29T02:59:23.806Z,24
2023-04-29T03:01:52.114Z,27
2023-04-29T03:03:06.356Z,27
2023-04-29T03:04:20.459Z,26
2023-04-29T03:06:48.648Z,27
2023-04-29T03:08:02.821Z,28
2023-04-29T03:09:16.941Z,27
2023-04-29T03:11:45.240Z,28
2023-04-29T03:12:59.372Z,28
2023-04-29T03:14:13.425Z,30
2023-04-29T03:16:41.955Z,31
2023-04-29T03:17:55.865Z,31
2023-04-29T03:19:09.950Z,32
2023-04-29T03:20:24.187Z,31
2023-04-29T03:22:52.349Z,30
2023-04-29T03:24:06.515Z,30
2023-04-29T03:25:20.622Z,31
2023-04-29T03:27:48.884Z,31
2023-04-29T03:29:03.058Z,30
2023-04-29T03:30:17.200Z,30
2023-04-29T03:32:45.537Z,33
2023-04-29T03:33:59.612Z,33
2023-04-29T03:35:15.767Z,33
2023-04-29T03:37:42.016Z,32
2023-04-29T03:38:56.074Z,31
2023-04-29T03:40:10.227Z,31
2023-04-29T03:41:24.446Z,32
2023-04-29T03:43:52.620Z,31
2023-04-29T03:45:06.846Z,32
2023-04-29T03:46:20.899Z,32
2023-04-29T03:48:49.134Z,30
2023-04-29T03:50:03.390Z,30
2023-04-29T03:51:17.436Z,30
2023-04-29T03:53:45.683Z,30
2023-04-29T03:54:59.840Z,32
2023-04-29T03:56:14.118Z,31
2023-04-29T03:58:42.209Z,33
2023-04-29T03:59:56.375Z,34
2023-04-29T04:01:10.469Z,35
2023-04-29T04:02:24.867Z,34
2023-04-29T04:04:53.059Z,34
2023-04-29T04:06:07.022Z,38
2023-04-29T04:07:21.127Z,38
2023-04-29T04:09:49.441Z,39
2023-04-29T04:11:03.779Z,38
2023-04-29T04:12:17.677Z,38
2023-04-29T04:14:45.933Z,41
2023-04-29T04:16:00.189Z,41
2023-04-29T04:17:14.214Z,43
2023-04-29T04:19:42.466Z,45
2023-04-29T04:20:56.618Z,48
2023-04-29T04:22:12.325Z,48
2023-04-29T04:23:24.898Z,49
2023-04-29T04:25:53.165Z,49
2023-04-29T04:27:07.311Z,51
2023-04-29T04:28:21.381Z,50
2023-04-29T04:30:49.692Z,50
2023-04-29T04:32:03.836Z,51
2023-04-29T04:33:17.945Z,50
2023-04-29T04:35:46.222Z,49
2023-04-29T04:37:00.400Z,51
2023-04-29T04:38:14.558Z,51
2023-04-29T04:40:42.857Z,51
2023-04-29T04:41:56.883Z,47
2023-04-29T04:43:10.970Z,44
2023-04-29T04:44:25.430Z,43
2023-04-29T04:46:53.436Z,45
2023-04-29T04:48:07.596Z,43
2023-04-29T04:49:21.643Z,42
2023-04-29T04:51:49.944Z,46
2023-04-29T04:53:04.160Z,45
2023-04-29T04:54:18.188Z,40
2023-04-29T04:56:46.475Z,47
2023-04-29T04:58:00.576Z,46
2023-04-29T04:59:14.793Z,47
2023-04-29T05:01:43.129Z,49
2023-04-29T05:02:57.226Z,50
2023-04-29T05:04:11.374Z,52
2023-04-29T05:05:25.496Z,52
2023-04-29T05:07:53.657Z,50
2023-04-29T05:09:07.815Z,46
2023-04-29T05:10:21.930Z,46
2023-04-29T05:12:50.206Z,44
2023-04-29T05:14:04.377Z,44
2023-04-29T05:15:18.452Z,42
2023-04-29T05:17:46.759Z,45
2023-04-29T05:19:00.829Z,43
2023-04-29T05:20:14.997Z,42
2023-04-29T05:22:43.249Z,48
2023-04-29T05:23:57.385Z,47
2023-04-29T05:25:11.516Z,48
2023-04-29T05:27:39.768Z,48
2023-04-29T05:28:53.942Z,44
2023-04-29T05:30:08.066Z,47
2023-04-29T05:31:22.248Z,46
2023-04-29T05:33:50.451Z,46
2023-04-29T05:35:07.188Z,46
2023-04-29T05:36:18.751Z,45
2023-04-29T05:38:46.989Z,46
2023-04-29T05:40:01.124Z,44
2023-04-29T05:41:15.324Z,46
2023-04-29T05:43:43.507Z,47
2023-04-29T05:44:57.661Z,49
2023-04-29T05:46:11.820Z,48
2023-04-29T05:48:40.051Z,47
2023-04-29T05:49:54.578Z,47
2023-04-29T05:51:08.325Z,43
2023-04-29T05:52:22.537Z,40
2023-04-29T05:54:50.692Z,41
2023-04-29T05:56:04.973Z,43
2023-04-29T05:57:18.988Z,42
2023-04-29T05:59:47.242Z,39
2023-04-29T06:01:01.385Z,39
2023-04-29T06:02:15.539Z,40
2023-04-29T06:04:44.061Z,40
2023-04-29T06:05:58.217Z,36
2023-04-29T06:07:12.088Z,39
2023-04-29T06:08:26.204Z,39
2023-04-29T06:09:40.280Z,38
2023-04-29T06:10:54.461Z,39
2023-04-29T06:12:08.654Z,39
2023-04-29T06:13:22.779Z,38
2023-04-29T06:15:50.973Z,38
2023-04-29T06:17:05.199Z,39
2023-04-29T06:18:19.240Z,39
2023-04-29T06:20:47.538Z,38
2023-04-29T06:22:01.632Z,36
2023-04-29T06:23:16.110Z,34
2023-04-29T06:25:44.077Z,36
2023-04-29T06:26:58.187Z,37
2023-04-29T06:28:12.299Z,33
2023-04-29T06:30:40.587Z,37
2023-04-29T06:31:54.745Z,35
2023-04-29T06:33:08.898Z,36
2023-04-29T06:34:22.977Z,35
2023-04-29T06:36:51.260Z,35
2023-04-29T06:38:05.439Z,37
2023-04-29T06:39:19.587Z,36
2023-04-29T06:41:47.792Z,37
2023-04-29T06:43:01.881Z,37
2023-04-29T06:44:16.043Z,37
2023-04-29T06:46:44.524Z,38
2023-04-29T06:47:58.565Z,38
2023-04-29T06:49:12.675Z,40
2023-04-29T06:51:40.830Z,38
2023-04-29T06:52:54.975Z,39
2023-04-29T06:54:09.116Z,37
2023-04-29T06:55:23.281Z,36
2023-04-29T06:57:59.691Z,38
2023-04-29T06:59:13.868Z,36
2023-04-29T07:01:44.589Z,36
2023-04-29T07:02:56.307Z,37
2023-04-29T07:04:10.386Z,37
2023-04-29T07:05:24.586Z,36
2023-04-29T07:07:52.849Z,35
2023-04-29T07:09:06.975Z,35
2023-04-29T07:10:21.025Z,35
2023-04-29T07:12:49.295Z,36
2023-04-29T07:14:03.463Z,34
2023-04-29T07:15:17.563Z,33
2023-04-29T07:17:45.919Z,32
2023-04-29T07:18:59.998Z,30
2023-04-29T07:20:14.117Z,29
2023-04-29T07:22:42.391Z,33
2023-04-29T07:23:56.491Z,32
2023-04-29T07:25:10.616Z,33
2023-04-29T07:26:24.853Z,33
2023-04-29T07:28:53.008Z,30
2023-04-29T07:30:07.236Z,30
2023-04-29T07:31:21.312Z,28
2023-04-29T07:33:49.569Z,31
2023-04-29T07:35:03.765Z,31
2023-04-29T07:36:17.836Z,28
2023-04-29T07:38:46.245Z,29
2023-04-29T07:40:00.212Z,28
2023-04-29T07:41:14.456Z,27
2023-04-29T07:43:42.709Z,28
2023-04-29T07:44:56.744Z,29
2023-04-29T07:46:11.012Z,29
2023-04-29T07:47:25.091Z,28
2023-04-29T07:49:53.274Z,29
2023-04-29T07:51:07.420Z,28
2023-04-29T07:52:21.529Z,28
2023-04-29T07:54:49.839Z,27
2023-04-29T07:56:04.054Z,28
2023-04-29T07:57:18.093Z,28
2023-04-29T07:59:46.415Z,29
2023-04-29T08:01:00.449Z,28
2023-04-29T08:02:14.746Z,28
2023-04-29T08:04:43.232Z,30
2023-04-29T08:05:57.034Z,29
2023-04-29T08:07:11.221Z,30
2023-04-29T08:08:25.385Z,29
2023-04-29T08:10:53.601Z,31
2023-04-29T08:12:07.688Z,30
2023-04-29T08:13:21.824Z,32
2023-04-29T08:15:50.277Z,32
2023-04-29T08:17:04.271Z,32
2023-04-29T08:18:18.362Z,31
2023-04-29T08:20:46.668Z,32
2023-04-29T08:22:00.714Z,31
2023-04-29T08:23:14.887Z,32
2023-04-29T08:25:43.226Z,31
2023-04-29T08:26:57.267Z,32
2023-04-29T08:28:11.397Z,32
2023-04-29T08:29:25.621Z,32
2023-04-29T08:31:54.032Z,30
2023-04-29T08:33:07.988Z,33
2023-04-29T08:34:22.090Z,31
2023-04-29T08:36:50.341Z,32
2023-04-29T08:38:04.490Z,31
2023-04-29T08:39:18.617Z,32
2023-04-29T08:41:47.167Z,34
2023-04-29T08:43:01.002Z,34
2023-04-29T08:44:15.190Z,32
2023-04-29T08:46:43.490Z,32
2023-04-29T08:47:57.658Z,33
2023-04-29T08:49:11.665Z,31
2023-04-29T08:51:39.923Z,32
2023-04-29T08:52:54.073Z,32
2023-04-29T08:54:08.207Z,31
2023-04-29T08:55:22.453Z,30
2023-04-29T08:57:50.587Z,32
2023-04-29T08:59:04.854Z,32
2023-04-29T09:00:18.898Z,33
2023-04-29T09:02:47.207Z,32
2023-04-29T09:04:01.471Z,33
2023-04-29T09:05:15.439Z,35
2023-04-29T09:07:43.698Z,34
2023-04-29T09:08:57.805Z,32
2023-04-29T09:10:11.961Z,31
2023-04-29T09:12:40.209Z,34
2023-04-29T09:13:54.348Z,31
2023-04-29T09:15:08.459Z,30
2023-04-29T09:16:22.650Z,30
2023-04-29T09:18:50.851Z,30
2023-04-29T09:20:05.107Z,30
2023-04-29T09:21:21.772Z,27
2023-04-29T09:23:47.423Z,27
2023-04-29T09:25:01.544Z,29
2023-04-29T09:26:15.791Z,29
2023-04-29T09:28:44.061Z,28
2023-04-29T09:29:58.063Z,26
2023-04-29T09:31:12.265Z,29
2023-04-29T09:33:40.464Z,28
2023-04-29T09:34:54.806Z,26
2023-04-29T09:36:08.864Z,27
2023-04-29T09:37:22.917Z,26
2023-04-29T09:39:51.115Z,25
2023-04-29T09:41:05.450Z,25
2023-04-29T09:42:19.464Z,26
2023-04-29T09:44:47.665Z,25
2023-04-29T09:46:01.863Z,25
2023-04-29T09:47:15.963Z,25
2023-04-29T09:49:44.283Z,24
2023-04-29T09:50:58.402Z,24
2023-04-29T09:52:12.505Z,24
2023-04-29T09:54:40.728Z,25
2023-04-29T09:55:54.909Z,24
2023-04-29T09:57:09.010Z,21
2023-04-29T09:58:23.157Z,21
2023-04-29T10:00:51.387Z,20
2023-04-29T10:02:05.615Z,24
2023-04-29T10:03:19.812Z,24
2023-04-29T10:05:47.946Z,26
2023-04-29T10:07:02.058Z,26
2023-04-29T10:08:16.211Z,26
2023-04-29T10:10:44.490Z,29
2023-04-29T10:11:58.594Z,30
2023-04-29T10:13:12.816Z,28
2023-04-29T10:15:41.018Z,30
2023-04-29T10:16:55.156Z,31
2023-04-29T10:18:09.296Z,29
2023-04-29T10:19:23.400Z,31
2023-04-29T10:21:51.873Z,30
2023-04-29T10:23:05.804Z,30
2023-04-29T10:24:19.936Z,30
2023-04-29T10:26:48.198Z,27
2023-04-29T10:28:02.321Z,29
2023-04-29T10:29:16.505Z,30
2023-04-29T10:31:44.799Z,31
2023-04-29T10:33:01.034Z,30
2023-04-29T10:34:13.000Z,32
2023-04-29T10:35:27.141Z,32
2023-04-29T10:36:41.256Z,33
2023-04-29T10:37:55.400Z,34
2023-04-29T10:39:09.612Z,34
2023-04-29T10:40:23.760Z,30
2023-04-29T10:42:52.017Z,31
2023-04-29T10:44:06.087Z,33
2023-04-29T10:45:20.192Z,32
2023-04-29T10:47:48.573Z,31
2023-04-29T10:49:02.622Z,29
2023-04-29T10:50:16.743Z,30
2023-04-29T10:52:44.997Z,27
2023-04-29T10:53:59.138Z,32
2023-04-29T10:55:13.255Z,31
2023-04-29T10:57:41.513Z,29
2023-04-29T10:58:55.637Z,30
2023-04-29T11:00:09.832Z,32
2023-04-29T11:01:23.966Z,30
2023-04-29T11:03:52.388Z,32
2023-04-29T11:05:06.388Z,32
2023-04-29T11:06:20.457Z,33
2023-04-29T11:08:48.724Z,31
2023-04-29T11:10:02.870Z,34
2023-04-29T11:11:17.015Z,33
2023-04-29T11:13:45.259Z,32
2023-04-29T11:14:59.509Z,31
2023-04-29T11:16:13.608Z,32
2023-04-29T11:18:41.804Z,31
2023-04-29T11:19:56.262Z,30
2023-04-29T11:21:10.150Z,30
2023-04-29T11:22:24.229Z,28
2023-04-29T11:24:52.977Z,28
2023-04-29T11:26:06.658Z,27
2023-04-29T11:27:20.686Z,29
2023-04-29T11:29:48.972Z,27
2023-04-29T11:31:03.251Z,25
2023-04-29T11:32:17.285Z,29
2023-04-29T11:34:45.524Z,29
2023-04-29T11:35:59.674Z,27
2023-04-29T11:37:13.891Z,29
2023-04-29T11:39:42.058Z,30
2023-04-29T11:40:56.198Z,27
2023-04-29T11:42:10.281Z,27
2023-04-29T11:43:24.479Z,30
2023-04-29T11:45:52.785Z,33
2023-04-29T11:47:06.856Z,32
2023-04-29T11:48:20.985Z,33
2023-04-29T11:50:49.295Z,34
2023-04-29T11:52:03.403Z,35
2023-04-29T11:53:17.501Z,35
2023-04-29T11:55:45.810Z,36
2023-04-29T11:56:59.995Z,36
2023-04-29T11:58:14.129Z,34
2023-04-29T12:00:42.316Z,38
2023-04-29T12:01:56.428Z,39
2023-04-29T12:03:10.781Z,37
2023-04-29T12:04:24.997Z,36
2023-04-29T12:06:52.983Z,41
2023-04-29T12:08:07.357Z,41
2023-04-29T12:09:21.225Z,41
2023-04-29T12:11:49.514Z,43
2023-04-29T12:13:03.637Z,40
2023-04-29T12:14:17.777Z,41
2023-04-29T12:16:46.089Z,39
2023-04-29T12:18:00.216Z,38
2023-04-29T12:19:14.358Z,40
2023-04-29T12:21:42.637Z,39
2023-04-29T12:22:56.728Z,40
2023-04-29T12:24:10.857Z,39
2023-04-29T12:26:39.239Z,38
2023-04-29T12:27:53.253Z,36
2023-04-29T12:29:07.381Z,34
2023-04-29T12:30:21.496Z,35
2023-04-29T12:32:49.857Z,35
2023-04-29T12:34:04.781Z,37
2023-04-29T12:35:18.154Z,37
2023-04-29T12:37:46.318Z,37
2023-04-29T12:39:00.404Z,37
2023-04-29T12:40:14.630Z,37
2023-04-29T12:42:42.837Z,33
2023-04-29T12:43:56.984Z,32
2023-04-29T12:45:11.109Z,29
2023-04-29T12:46:25.300Z,28
2023-04-29T12:48:53.556Z,30
2023-04-29T12:50:07.644Z,30
2023-04-29T12:51:21.780Z,33
2023-04-29T12:53:50.048Z,33
2023-04-29T12:55:04.276Z,29
2023-04-29T12:56:18.305Z,30
2023-04-29T12:58:46.667Z,31
2023-04-29T13:00:00.690Z,28
2023-04-29T13:01:17.638Z,31
2023-04-29T13:03:43.340Z,31
2023-04-29T13:04:57.691Z,29
2023-04-29T13:06:11.344Z,30
2023-04-29T13:08:39.819Z,27
2023-04-29T13:09:53.964Z,29
2023-04-29T13:11:07.908Z,28
2023-04-29T13:12:22.035Z,30
2023-04-29T13:14:50.273Z,26
2023-04-29T13:16:04.470Z,29
2023-04-29T13:17:18.757Z,29
2023-04-29T13:19:51.793Z,28
2023-04-29T13:21:02.404Z,27
2023-04-29T13:22:15.080Z,29
2023-04-29T13:24:43.458Z,31
2023-04-29T13:25:57.493Z,29
2023-04-29T13:27:11.606Z,30
2023-04-29T13:29:40.011Z,25
2023-04-29T13:30:54.021Z,31
2023-04-29T13:32:08.238Z,26
2023-04-29T13:33:22.429Z,29
2023-04-29T13:35:50.537Z,29
2023-04-29T13:37:04.710Z,29
2023-04-29T13:38:18.818Z,30
2023-04-29T13:39:37.773Z,29
2023-04-29T13:40:48.958Z,29
2023-04-29T13:42:01.214Z,31
2023-04-29T13:43:21.021Z,29
2023-04-29T13:45:45.603Z,28
2023-04-29T13:46:57.894Z,28
2023-04-29T13:48:34.848Z,28
2023-04-29T13:52:47.110Z,27
2023-04-29T14:04:15.746Z,28
2023-04-29T14:06:43.932Z,27
2023-04-29T14:07:58.009Z,29
2023-04-29T14:09:12.165Z,26
2023-04-29T14:11:40.405Z,27
2023-04-29T14:12:54.606Z,26
2023-04-29T14:14:08.668Z,25
2023-04-29T14:15:22.908Z,27
2023-04-29T14:17:51.107Z,25
2023-04-29T14:19:05.220Z,27
2023-04-29T14:20:19.447Z,26
2023-04-29T14:22:47.615Z,26
2023-04-29T14:24:01.739Z,26
2023-04-29T14:25:16.013Z,27
2023-04-29T14:27:44.166Z,25
2023-04-29T14:28:58.293Z,26
2023-04-29T14:30:12.467Z,27
2023-04-29T14:32:40.726Z,26
2023-04-29T14:33:54.881Z,26
2023-04-29T14:35:08.954Z,25
2023-04-29T14:36:26.999Z,25
2023-04-29T14:38:51.362Z,25
2023-04-29T14:41:19.723Z,25
2023-04-29T14:43:47.927Z,25
2023-04-29T14:45:02.081Z,24
2023-04-29T14:46:16.219Z,23
2023-04-29T14:48:44.442Z,24
2023-04-29T14:49:58.596Z,24
2023-04-29T14:51:12.716Z,24
2023-04-29T14:53:40.961Z,24
2023-04-29T14:54:55.408Z,23
2023-04-29T14:56:09.276Z,24
2023-04-29T14:57:23.427Z,23
2023-04-29T14:59:51.644Z,23
2023-04-29T15:01:05.777Z,24
2023-04-29T15:02:20.016Z,24
2023-04-29T15:04:48.221Z,26
2023-04-29T15:06:02.297Z,24
2023-04-29T15:07:16.490Z,24
2023-04-29T15:09:44.790Z,25
2023-04-29T15:10:58.820Z,24
2023-04-29T15:12:13.016Z,23
2023-04-29T15:14:49.443Z,25
2023-04-29T15:16:03.575Z,24
2023-04-29T15:17:17.700Z,24
2023-04-29T15:19:46.100Z,24
2023-04-29T15:21:00.050Z,24
2023-04-29T15:22:14.340Z,24
2023-04-29T15:24:42.527Z,25
2023-04-29T15:25:56.600Z,24
2023-04-29T15:27:10.752Z,23
2023-04-29T15:28:25.013Z,24
2023-04-29T15:30:53.127Z,24
2023-04-29T15:32:07.464Z,24
2023-04-29T15:33:21.548Z,25
2023-04-29T15:35:49.779Z,25
2023-04-29T15:37:03.843Z,24
2023-04-29T15:38:17.945Z,26
2023-04-29T15:40:46.274Z,27
2023-04-29T15:42:00.415Z,27
2023-04-29T15:43:14.588Z,26
2023-04-29T15:45:42.876Z,24
2023-04-29T15:46:56.938Z,24
2023-04-29T15:48:11.016Z,25
2023-04-29T15:50:39.433Z,25
2023-04-29T15:51:53.441Z,25
2023-04-29T15:53:07.549Z,24
2023-04-29T15:54:21.703Z,25
2023-04-29T15:56:49.957Z,26
2023-04-29T15:58:04.085Z,25
2023-04-29T15:59:18.541Z,25
2023-04-29T16:01:46.598Z,26
2023-04-29T16:03:00.667Z,27
2023-04-29T16:04:14.768Z,26
2023-04-29T16:06:43.175Z,28
2023-04-29T16:07:57.154Z,28
2023-04-29T16:09:11.264Z,29
2023-04-29T16:11:39.726Z,29
2023-04-29T16:12:53.791Z,30
2023-04-29T16:14:07.838Z,29
2023-04-29T16:15:21.918Z,28
2023-04-29T16:17:50.255Z,29
2023-04-29T16:19:04.370Z,29
2023-04-29T16:20:18.454Z,30
2023-04-29T16:22:46.777Z,29
2023-04-29T16:24:00.865Z,29
2023-04-29T16:25:15.004Z,28
2023-04-29T16:27:43.324Z,28
2023-04-29T16:28:57.436Z,29
2023-04-29T16:30:11.527Z,29
2023-04-29T16:32:40.262Z,27
2023-04-29T16:33:53.985Z,27
2023-04-29T16:35:08.133Z,27
2023-04-29T16:36:22.213Z,26
2023-04-29T16:38:50.500Z,26
2023-04-29T16:40:04.592Z,28
2023-04-29T16:41:18.774Z,27
2023-04-29T16:43:47.060Z,31
2023-04-29T16:45:01.120Z,27
2023-04-29T16:46:15.356Z,28
2023-04-29T16:48:43.567Z,25
2023-04-29T16:49:57.683Z,27
2023-04-29T16:51:11.807Z,27
2023-04-29T16:53:40.200Z,23
2023-04-29T16:54:54.221Z,21
2023-04-29T16:56:08.373Z,24
2023-04-29T16:57:22.531Z,24
2023-04-29T16:59:50.720Z,24
2023-04-29T17:01:04.986Z,21
2023-04-29T17:02:19.015Z,22
2023-04-29T17:04:47.316Z,23
2023-04-29T17:06:01.390Z,21
2023-04-29T17:07:15.642Z,23
2023-04-29T17:09:43.900Z,21
2023-04-29T17:10:57.980Z,20
2023-04-29T17:12:12.100Z,21
2023-04-29T17:13:26.227Z,20
2023-04-29T17:14:40.532Z,20
2023-04-29T17:15:54.508Z,21
2023-04-29T17:17:08.602Z,22
2023-04-29T17:18:22.783Z,20
2023-04-29T17:20:51.370Z,21
2023-04-29T17:22:05.133Z,22
2023-04-29T17:23:19.293Z,21
2023-04-29T17:25:47.558Z,21
2023-04-29T17:27:01.738Z,21
2023-04-29T17:28:15.801Z,20
2023-04-29T17:30:44.081Z,20
2023-04-29T17:31:58.280Z,19
2023-04-29T17:33:12.383Z,21
2023-04-29T17:35:40.588Z,19
2023-04-29T17:36:54.747Z,19
2023-04-29T17:38:08.884Z,20
2023-04-29T17:39:22.993Z,17
2023-04-29T17:41:51.272Z,19
2023-04-29T17:43:05.468Z,21
2023-04-29T17:44:22.592Z,21
2023-04-29T17:46:47.802Z,20
2023-04-29T17:48:01.985Z,21
2023-04-29T17:49:16.094Z,21
2023-04-29T17:51:44.401Z,20
2023-04-29T17:52:58.773Z,21
2023-04-29T17:54:13.061Z,21
2023-04-29T17:56:40.859Z,20
2023-04-29T17:57:55.039Z,22
2023-04-29T17:59:09.504Z,21
2023-04-29T18:00:23.295Z,21
2023-04-29T18:02:52.229Z,20
2023-04-29T18:04:07.541Z,21
2023-04-29T18:05:19.958Z,21
2023-04-29T18:07:48.115Z,22
2023-04-29T18:09:02.230Z,20
2023-04-29T18:10:16.360Z,22
2023-04-29T18:12:44.624Z,23
2023-04-29T18:13:58.804Z,23
2023-04-29T18:15:12.894Z,22
2023-04-29T18:17:41.205Z,22
2023-04-29T18:18:56.902Z,22
2023-04-29T18:20:09.449Z,23
2023-04-29T18:21:23.591Z,22
2023-04-29T18:23:51.843Z,22
2023-04-29T18:25:06.024Z,22
2023-04-29T18:26:20.155Z,22
2023-04-29T18:28:48.356Z,23
2023-04-29T18:30:02.488Z,24
2023-04-29T18:31:16.638Z,23
2023-04-29T18:33:44.861Z,22
2023-04-29T18:34:59.012Z,24
2023-04-29T18:36:13.139Z,23
2023-04-29T18:38:41.396Z,21
2023-04-29T18:39:55.748Z,22
2023-04-29T18:41:09.692Z,22
2023-04-29T18:42:23.945Z,20
2023-04-29T18:44:52.102Z,23
2023-04-29T18:46:06.288Z,23
2023-04-29T18:47:20.498Z,24
2023-04-29T18:49:48.648Z,23
2023-04-29T18:51:02.824Z,23
2023-04-29T18:52:17.157Z,24
2023-04-29T18:54:45.202Z,28
2023-04-29T18:55:59.338Z,34
2023-04-29T18:57:13.495Z,49
2023-04-29T18:59:41.711Z,57
2023-04-29T19:00:55.884Z,60
2023-04-29T19:02:09.975Z,80
2023-04-29T19:03:24.144Z,73
2023-04-29T19:05:52.331Z,224
2023-04-29T19:07:06.481Z,385
2023-04-29T19:08:20.570Z,396
2023-04-29T19:10:48.885Z,179
2023-04-29T19:12:03.024Z,136
2023-04-29T19:13:17.130Z,90
2023-04-29T19:15:45.464Z,50
2023-04-29T19:16:59.581Z,72
2023-04-29T19:18:13.709Z,73
2023-04-29T19:20:41.945Z,58
2023-04-29T19:21:56.117Z,51
2023-04-29T19:23:10.173Z,49
2023-04-29T19:24:24.362Z,46
2023-04-29T19:26:52.673Z,46
2023-04-29T19:28:06.699Z,45
2023-04-29T19:29:20.965Z,45
2023-04-29T19:31:49.274Z,37
2023-04-29T19:33:03.370Z,36
2023-04-29T19:34:17.448Z,34
2023-04-29T19:36:45.779Z,32
2023-04-29T19:37:59.767Z,32
2023-04-29T19:39:13.999Z,31
2023-04-29T19:41:42.207Z,28
2023-04-29T19:42:56.333Z,31
2023-04-29T19:44:10.471Z,30
2023-04-29T19:45:24.653Z,31
2023-04-29T19:47:52.970Z,34
2023-04-29T19:49:07.018Z,32
2023-04-29T19:50:21.124Z,32
2023-04-29T19:52:49.433Z,31
2023-04-29T19:54:03.641Z,30
2023-04-29T19:55:17.678Z,30
2023-04-29T19:57:45.991Z,31
2023-04-29T19:59:00.116Z,31
2023-04-29T20:00:14.249Z,36
2023-04-29T20:02:42.584Z,34
2023-04-29T20:03:56.717Z,43
2023-04-29T20:05:10.770Z,50
2023-04-29T20:07:38.982Z,57
2023-04-29T20:08:53.284Z,44
2023-04-29T20:10:07.284Z,47
2023-04-29T20:11:21.383Z,43
2023-04-29T20:13:49.716Z,43
2023-04-29T20:15:03.934Z,41
2023-04-29T20:16:17.974Z,47
2023-04-29T20:18:46.274Z,43
2023-04-29T20:20:00.363Z,47
2023-04-29T20:21:14.542Z,43
2023-04-29T20:23:42.744Z,32
2023-04-29T20:24:56.926Z,32
2023-04-29T20:26:11.040Z,34
2023-04-29T20:27:25.186Z,34
2023-04-29T20:29:53.727Z,35
2023-04-29T20:31:07.535Z,34
2023-04-29T20:32:21.632Z,32
2023-04-29T20:34:49.947Z,30
2023-04-29T20:36:04.077Z,31
2023-04-29T20:37:18.170Z,30
2023-04-29T20:39:46.458Z,28
2023-04-29T20:41:00.576Z,28
2023-04-29T20:42:14.727Z,28
2023-04-29T20:44:43.020Z,27
2023-04-29T20:45:57.185Z,28
2023-04-29T20:47:11.347Z,30
2023-04-29T20:49:39.836Z,35
2023-04-29T20:50:53.776Z,34
2023-04-29T20:52:07.769Z,36
2023-04-29T20:53:21.952Z,35
2023-04-29T20:55:50.251Z,31
2023-04-29T20:57:04.383Z,34
2023-04-29T20:58:18.489Z,34
2023-04-29T21:00:46.838Z,33
2023-04-29T21:02:00.839Z,31
2023-04-29T21:03:15.019Z,33
2023-04-29T21:05:43.265Z,30
2023-04-29T21:06:57.419Z,30
2023-04-29T21:08:11.511Z,30
2023-04-29T21:10:40.156Z,32
2023-04-29T21:11:53.935Z,35
2023-04-29T21:13:08.091Z,39
2023-04-29T21:14:22.233Z,37
2023-04-29T21:16:50.398Z,39
2023-04-29T21:18:04.713Z,38
2023-04-29T21:19:18.752Z,38
2023-04-29T21:21:47.085Z,31
2023-04-29T21:23:01.141Z,31
2023-04-29T21:24:15.366Z,30
2023-04-29T21:26:43.593Z,33
2023-04-29T21:27:57.646Z,35
2023-04-29T21:29:11.878Z,36
2023-04-29T21:31:40.219Z,47
2023-04-29T21:32:54.347Z,56
2023-04-29T21:34:08.308Z,57
2023-04-29T21:35:22.475Z,43
2023-04-29T21:37:50.715Z,45
2023-04-29T21:39:04.939Z,43
2023-04-29T21:40:19.006Z,42
2023-04-29T21:42:47.262Z,35
2023-04-29T21:44:01.627Z,30
2023-04-29T21:45:15.564Z,36
2023-04-29T21:47:43.943Z,39
2023-04-29T21:48:57.984Z,38
2023-04-29T21:50:12.029Z,37
2023-04-29T21:51:26.521Z,40
2023-04-29T21:52:40.461Z,39
2023-04-29T21:53:54.475Z,39
2023-04-29T21:55:08.597Z,40
2023-04-29T21:56:22.802Z,39
2023-04-29T21:58:51.239Z,65
2023-04-29T22:00:05.139Z,62
2023-04-29T22:01:19.323Z,66
2023-04-29T22:03:47.529Z,48
2023-04-29T22:05:01.641Z,43
2023-04-29T22:06:15.821Z,44
2023-04-29T22:08:44.090Z,42
2023-04-29T22:09:58.204Z,41
2023-04-29T22:11:12.388Z,39
2023-04-29T22:13:40.584Z,34
2023-04-29T22:14:54.786Z,32
2023-04-29T22:16:08.848Z,34
2023-04-29T22:17:23.026Z,31
2023-04-29T22:19:51.356Z,33
2023-04-29T22:21:05.772Z,33
2023-04-29T22:22:19.618Z,30
2023-04-29T22:24:47.917Z,37
2023-04-29T22:26:01.847Z,36
2023-04-29T22:27:16.070Z,41
2023-04-29T22:29:44.361Z,38
2023-04-29T22:30:58.415Z,37
2023-04-29T22:32:12.679Z,38
2023-04-29T22:34:40.832Z,39
2023-04-29T22:35:54.956Z,42
2023-04-29T22:37:09.222Z,39
2023-04-29T22:38:23.282Z,39
2023-04-29T22:40:51.537Z,40
2023-04-29T22:42:05.654Z,37
2023-04-29T22:43:19.858Z,35
2023-04-29T22:45:48.047Z,34
2023-04-29T22:47:02.150Z,32
2023-04-29T22:48:16.357Z,35
2023-04-29T22:50:44.632Z,32
2023-04-29T22:51:58.714Z,34
2023-04-29T22:53:12.902Z,33
2023-04-29T22:55:41.055Z,34
2023-04-29T22:56:55.250Z,34
2023-04-29T22:58:09.404Z,36
2023-04-29T22:59:23.542Z,35
2023-04-29T23:01:51.784Z,37
2023-04-29T23:03:06.096Z,36
2023-04-29T23:04:20.105Z,37
2023-04-29T23:06:48.350Z,38